Time,TemperatureF,DewpointF,PressureIn,WindDirection,WindDirectionDegrees,WindSpeedMPH,WindSpeedGustMPH,Humidity,HourlyPrecipIn,Conditions,Clouds,dailyrainin,SoftwareType,DateUTC
2015-07-29 00:01:00,60.8,59.9,29.93,ESE,102,0.0,0.0,97,0.00,,,0.00,WeatherCatV2.01B39,2015-07-29 04:01:00,
2015-07-29 00:06:00,60.7,59.8,29.93,ESE,102,0.0,0.0,97,0.00,,,0.00,WeatherCatV2.01B39,2015-07-29 04:06:00,
2015-07-29 00:11:00,60.6,59.7,29.94,ESE,103,0.0,0.0,97,0.00,,,0.00,WeatherCatV2.01B39,2015-07-29 04:11:00,
2015-07-29 00:16:00,60.5,59.6,29.94,ESE,103,0.0,0.0,97,0.00,,,0.00,WeatherCatV2.01B39,2015-07-29 04:16:00,
2015-07-29 00:21:00,60.4,59.2,29.93,ESE,102,0.0,0.0,96,0.00,,,0.00,WeatherCatV2.01B39,2015-07-29 04:21:00,
2015-07-29 00:26:00,60.4,59.2,29.93,ESE,103,0.0,0.0,96,0.00,,,0.00,WeatherCatV2.01B39,2015-07-29 04:26:00,
2015-07-29 00:31:00,60.3,59.2,29.93,ESE,103,0.0,0.0,96,0.00,,,0.00,WeatherCatV2.01B39,2015-07-29 04:31:00,
2015-07-29 00:36:00,60.2,59.3,29.93,ESE,102,0.0,0.0,97,0.00,,,0.00,WeatherCatV2.01B39,2015-07-29 04:36:00,
2015-07-29 00:41:00,60.4,59.5,29.93,ESE,103,0.0,0.0,97,0.00,,,0.00,WeatherCatV2.01B39,2015-07-29 04:41:00,
2015-07-29 00:46:00,60.4,59.5,29.93,ESE,103,0.0,0.0,97,0.00,,,0.00,WeatherCatV2.01B39,2015-07-29 04:46:00,
2015-07-29 00:51:00,60.4,59.5,29.93,ESE,103,0.0,0.0,97,0.00,,,0.00,WeatherCatV2.01B39,2015-07-29 04:51:00,
2015-07-29 00:56:00,60.2,59.3,29.93,ESE,102,0.0,0.0,97,0.00,,,0.00,WeatherCatV2.01B39,2015-07-29 04:56:00,
2015-07-29 01:01:00,60.3,59.4,29.92,ESE,102,0.0,0.0,97,0.00,,,0.00,WeatherCatV2.01B39,2015-07-29 05:01:00,
2015-07-29 01:06:00,60.3,59.4,29.92,ESE,103,0.0,0.0,97,0.00,,,0.00,WeatherCatV2.01B39,2015-07-29 05:06:00,
2015-07-29 01:11:00,60.2,59.3,29.92,ESE,103,0.0,0.0,97,0.00,,,0.00,WeatherCatV2.01B39,2015-07-29 05:11:00,
2015-07-29 01:16:00,60.0,59.1,29.92,ESE,102,0.0,0.0,97,0.00,,,0.00,WeatherCatV2.01B39,2015-07-29 05:16:00,
2015-07-29 01:21:00,60.0,59.1,29.92,ESE,103,0.0,0.0,97,0.00,,,0.00,WeatherCatV2.01B39,2015-07-29 05:21:00,
2015-07-29 01:26:00,59.9,59.0,29.92,ESE,103,0.0,0.0,97,0.00,,,0.00,WeatherCatV2.01B39,2015-07-29 05:26:00,
2015-07-29 01:31:00,59.7,58.8,29.92,ESE,102,0.0,0.0,97,0.00,,,0.00,WeatherCatV2.01B39,2015-07-29 05:31:00,
2015-07-29 01:36:00,59.6,58.8,29.92,ESE,103,0.0,0.0,97,0.00,,,0.00,WeatherCatV2.01B39,2015-07-29 05:36:00,
2015-07-29 01:41:00,59.6,58.8,29.92,ESE,103,0.0,0.0,97,0.00,,,0.00,WeatherCatV2.01B39,2015-07-29 05:41:00,
2015-07-29 01:46:00,59.5,58.7,29.92,ESE,103,0.0,0.0,97,0.00,,,0.00,WeatherCatV2.01B39,2015-07-29 05:46:00,
2015-07-29 01:51:00,59.5,58.7,29.92,ESE,103,0.0,0.0,97,0.00,,,0.00,WeatherCatV2.01B39,2015-07-29 05:51:00,
2015-07-29 01:56:00,59.4,58.5,29.92,ESE,103,0.0,0.0,97,0.00,,,0.00,WeatherCatV2.01B39,2015-07-29 05:56:00,
2015-07-29 02:06:00,59.4,58.5,29.92,ESE,102,0.0,0.0,97,0.00,,,0.00,WeatherCatV2.01B39,2015-07-29 06:06:00,
2015-07-29 02:11:00,59.4,58.5,29.92,ESE,103,0.0,0.0,97,0.00,,,0.00,WeatherCatV2.01B39,2015-07-29 06:11:00,
2015-07-29 02:16:00,59.4,58.5,29.92,ESE,102,0.0,0.0,97,0.00,,,0.00,WeatherCatV2.01B39,2015-07-29 06:16:00,
2015-07-29 02:21:00,59.4,58.5,29.92,ESE,103,0.0,0.0,97,0.00,,,0.00,WeatherCatV2.01B39,2015-07-29 06:21:00,
2015-07-29 02:26:00,59.6,59.0,29.92,ESE,103,0.0,0.0,98,0.00,,,0.00,WeatherCatV2.01B39,2015-07-29 06:26:00,
2015-07-29 02:31:00,59.6,59.0,29.92,ESE,102,0.0,0.0,98,0.00,,,0.00,WeatherCatV2.01B39,2015-07-29 06:31:00,
2015-07-29 02:36:00,59.7,59.1,29.92,ESE,103,0.0,0.0,98,0.00,,,0.00,WeatherCatV2.01B39,2015-07-29 06:36:00,
2015-07-29 02:41:00,59.7,59.1,29.92,ESE,102,0.0,0.0,98,0.00,,,0.00,WeatherCatV2.01B39,2015-07-29 06:41:00,
2015-07-29 02:46:00,59.6,59.0,29.92,ESE,102,0.0,0.0,98,0.00,,,0.00,WeatherCatV2.01B39,2015-07-29 06:46:00,
2015-07-29 02:51:00,59.8,59.2,29.91,ESE,103,0.0,0.0,98,0.00,,,0.00,WeatherCatV2.01B39,2015-07-29 06:51:00,
2015-07-29 02:56:00,59.9,59.3,29.91,ESE,103,0.0,0.0,98,0.00,,,0.00,WeatherCatV2.01B39,2015-07-29 06:56:00,
2015-07-29 03:01:00,60.0,59.4,29.92,ESE,103,0.0,0.0,98,0.00,,,0.00,WeatherCatV2.01B39,2015-07-29 07:01:00,
2015-07-29 03:06:00,59.9,59.3,29.92,ESE,103,0.0,0.0,98,0.00,,,0.00,WeatherCatV2.01B39,2015-07-29 07:06:00,
2015-07-29 03:11:00,59.8,59.2,29.92,ESE,103,0.0,0.0,98,0.00,,,0.00,WeatherCatV2.01B39,2015-07-29 07:11:00,
2015-07-29 03:16:00,60.0,59.4,29.91,ESE,102,0.0,0.0,98,0.00,,,0.00,WeatherCatV2.01B39,2015-07-29 07:16:00,
2015-07-29 03:21:00,60.2,59.6,29.92,ESE,103,0.0,0.0,98,0.00,,,0.00,WeatherCatV2.01B39,2015-07-29 07:21:00,
2015-07-29 03:26:00,60.4,59.8,29.92,ESE,103,0.0,0.0,98,0.00,,,0.00,WeatherCatV2.01B39,2015-07-29 07:26:00,
2015-07-29 03:31:00,60.8,60.2,29.92,ESE,103,0.0,0.0,98,0.00,,,0.00,WeatherCatV2.01B39,2015-07-29 07:31:00,
2015-07-29 03:36:00,60.9,60.3,29.92,ESE,103,0.0,0.0,98,0.00,,,0.00,WeatherCatV2.01B39,2015-07-29 07:36:00,
2015-07-29 03:41:00,60.9,60.3,29.91,ESE,103,0.0,0.0,98,0.00,,,0.00,WeatherCatV2.01B39,2015-07-29 07:41:00,
2015-07-29 03:46:00,60.9,60.3,29.92,ESE,102,0.0,0.0,98,0.00,,,0.00,WeatherCatV2.01B39,2015-07-29 07:46:00,
2015-07-29 03:51:00,60.9,60.3,29.92,ESE,103,0.0,0.0,98,0.00,,,0.00,WeatherCatV2.01B39,2015-07-29 07:51:00,
2015-07-29 03:56:00,61.1,60.5,29.92,ESE,103,0.0,0.0,98,0.00,,,0.00,WeatherCatV2.01B39,2015-07-29 07:56:00,
2015-07-29 04:01:00,62.0,61.4,29.91,ESE,102,0.0,0.0,98,0.00,,,0.00,WeatherCatV2.01B39,2015-07-29 08:01:00,
2015-07-29 04:06:00,62.7,62.1,29.91,ESE,103,0.0,0.0,98,0.00,,,0.00,WeatherCatV2.01B39,2015-07-29 08:06:00,
2015-07-29 04:11:00,63.0,62.4,29.91,ESE,103,0.0,0.0,98,0.00,,,0.00,WeatherCatV2.01B39,2015-07-29 08:11:00,
2015-07-29 04:16:00,63.0,62.4,29.91,ESE,102,0.0,0.0,98,0.00,,,0.00,WeatherCatV2.01B39,2015-07-29 08:16:00,
2015-07-29 04:21:00,62.9,62.3,29.92,ESE,102,0.0,0.0,98,0.00,,,0.00,WeatherCatV2.01B39,2015-07-29 08:21:00,
2015-07-29 04:26:00,62.9,62.3,29.92,ESE,102,0.0,0.0,98,0.00,,,0.00,WeatherCatV2.01B39,2015-07-29 08:26:00,
2015-07-29 04:31:00,62.9,62.3,29.91,ESE,103,0.0,0.0,98,0.00,,,0.00,WeatherCatV2.01B39,2015-07-29 08:31:00,
2015-07-29 04:36:00,63.1,62.5,29.92,ESE,102,0.0,0.0,98,0.00,,,0.00,WeatherCatV2.01B39,2015-07-29 08:36:00,
2015-07-29 04:41:00,63.5,62.9,29.91,ESE,102,0.0,0.0,98,0.00,,,0.00,WeatherCatV2.01B39,2015-07-29 08:41:00,
2015-07-29 04:46:00,63.2,62.6,29.92,ESE,103,0.0,0.0,98,0.00,,,0.00,WeatherCatV2.01B39,2015-07-29 08:46:00,
2015-07-29 04:51:00,63.2,62.6,29.92,ESE,103,0.0,0.0,98,0.00,,,0.00,WeatherCatV2.01B39,2015-07-29 08:51:00,
2015-07-29 04:56:00,62.9,62.3,29.92,ESE,102,0.0,0.0,98,0.00,,,0.00,WeatherCatV2.01B39,2015-07-29 08:56:00,
2015-07-29 05:01:00,62.8,62.2,29.93,ESE,103,0.0,0.0,98,0.00,,,0.00,WeatherCatV2.01B39,2015-07-29 09:01:00,
2015-07-29 05:06:00,62.9,62.3,29.93,ESE,102,0.0,0.0,98,0.00,,,0.00,WeatherCatV2.01B39,2015-07-29 09:06:00,
2015-07-29 05:11:00,63.1,62.5,29.93,ESE,103,0.0,0.0,98,0.00,,,0.00,WeatherCatV2.01B39,2015-07-29 09:11:00,
2015-07-29 05:16:00,63.0,62.4,29.93,ESE,102,0.0,0.0,98,0.00,,,0.00,WeatherCatV2.01B39,2015-07-29 09:16:00,
2015-07-29 05:21:00,62.7,62.1,29.93,ESE,103,0.0,0.0,98,0.00,,,0.00,WeatherCatV2.01B39,2015-07-29 09:21:00,
2015-07-29 05:26:00,63.0,62.4,29.93,ESE,103,0.0,0.0,98,0.00,,,0.00,WeatherCatV2.01B39,2015-07-29 09:26:00,
2015-07-29 05:31:00,63.2,62.6,29.93,ESE,102,0.0,0.0,98,0.00,,,0.00,WeatherCatV2.01B39,2015-07-29 09:31:00,
2015-07-29 05:36:00,63.0,62.4,29.93,ESE,103,0.0,0.0,98,0.00,,,0.00,WeatherCatV2.01B39,2015-07-29 09:36:00,
2015-07-29 05:46:00,62.5,61.9,29.93,ESE,102,0.0,0.0,98,0.00,,,0.00,WeatherCatV2.01B39,2015-07-29 09:46:00,
2015-07-29 05:51:00,62.4,61.8,29.94,ESE,102,0.0,0.0,98,0.00,,,0.00,WeatherCatV2.01B39,2015-07-29 09:51:00,
2015-07-29 05:56:00,62.5,61.9,29.94,ESE,103,0.0,0.0,98,0.00,,,0.00,WeatherCatV2.01B39,2015-07-29 09:56:00,
2015-07-29 06:01:00,62.3,61.7,29.95,ESE,103,0.0,0.0,98,0.00,,,0.00,WeatherCatV2.01B39,2015-07-29 10:01:00,
2015-07-29 06:06:00,62.4,61.8,29.94,ESE,102,0.0,0.0,98,0.00,,,0.00,WeatherCatV2.01B39,2015-07-29 10:06:00,
2015-07-29 06:11:00,62.3,61.7,29.95,ESE,102,0.0,0.0,98,0.00,,,0.00,WeatherCatV2.01B39,2015-07-29 10:11:00,
2015-07-29 06:16:00,62.2,61.6,29.95,ESE,103,0.0,0.0,98,0.00,,,0.00,WeatherCatV2.01B39,2015-07-29 10:16:00,
2015-07-29 06:21:00,62.3,61.7,29.95,ESE,103,0.0,0.0,98,0.00,,,0.00,WeatherCatV2.01B39,2015-07-29 10:21:00,
2015-07-29 06:26:00,62.3,61.7,29.95,ESE,102,0.0,0.0,98,0.00,,,0.00,WeatherCatV2.01B39,2015-07-29 10:26:00,
2015-07-29 06:31:00,62.3,61.7,29.95,ESE,103,0.0,0.0,98,0.00,,,0.00,WeatherCatV2.01B39,2015-07-29 10:31:00,
2015-07-29 06:36:00,62.3,61.7,29.95,ESE,103,0.0,0.0,98,0.00,,,0.00,WeatherCatV2.01B39,2015-07-29 10:36:00,
2015-07-29 06:41:00,62.3,61.7,29.94,ESE,103,0.0,0.0,98,0.00,,,0.00,WeatherCatV2.01B39,2015-07-29 10:41:00,
2015-07-29 06:46:00,62.4,61.8,29.95,ESE,102,0.0,0.0,98,0.00,,,0.00,WeatherCatV2.01B39,2015-07-29 10:46:00,
2015-07-29 06:51:00,62.5,61.9,29.95,ESE,103,0.0,0.0,98,0.00,,,0.00,WeatherCatV2.01B39,2015-07-29 10:51:00,
2015-07-29 06:56:00,62.8,62.2,29.95,ESE,103,0.0,0.0,98,0.00,,,0.00,WeatherCatV2.01B39,2015-07-29 10:56:00,
2015-07-29 07:01:00,63.3,62.7,29.95,ESE,102,0.0,0.0,98,0.00,,,0.00,WeatherCatV2.01B39,2015-07-29 11:01:00,
2015-07-29 07:06:00,63.6,63.3,29.95,ESE,103,0.0,0.0,99,0.00,,,0.00,WeatherCatV2.01B39,2015-07-29 11:06:00,
2015-07-29 07:11:00,63.9,63.3,29.95,ESE,103,0.0,0.0,98,0.00,,,0.00,WeatherCatV2.01B39,2015-07-29 11:11:00,
2015-07-29 07:16:00,64.2,63.9,29.94,ESE,103,0.0,0.0,99,0.00,,,0.00,WeatherCatV2.01B39,2015-07-29 11:16:00,
2015-07-29 07:21:00,64.5,64.2,29.94,ESE,102,0.0,0.0,99,0.00,,,0.00,WeatherCatV2.01B39,2015-07-29 11:21:00,
2015-07-29 07:26:00,64.7,64.1,29.94,ESE,103,0.0,0.0,98,0.00,,,0.00,WeatherCatV2.01B39,2015-07-29 11:26:00,
2015-07-29 07:31:00,64.9,64.6,29.94,ESE,103,0.0,0.0,99,0.00,,,0.00,WeatherCatV2.01B39,2015-07-29 11:31:00,
2015-07-29 07:41:00,65.6,65.3,29.94,ESE,102,0.0,0.0,99,0.00,,,0.00,WeatherCatV2.01B39,2015-07-29 11:41:00,
2015-07-29 07:46:00,65.8,65.5,29.94,ESE,103,0.0,0.0,99,0.00,,,0.00,WeatherCatV2.01B39,2015-07-29 11:46:00,
2015-07-29 07:51:00,66.1,65.8,29.94,ESE,103,0.0,0.0,99,0.00,,,0.00,WeatherCatV2.01B39,2015-07-29 11:51:00,
2015-07-29 07:56:00,66.4,66.1,29.94,ESE,102,0.0,0.0,99,0.00,,,0.00,WeatherCatV2.01B39,2015-07-29 11:56:00,
2015-07-29 08:01:00,66.6,66.3,29.94,ESE,103,0.0,0.0,99,0.00,,,0.00,WeatherCatV2.01B39,2015-07-29 12:01:00,
2015-07-29 08:06:00,66.8,66.5,29.93,ESE,102,0.0,0.0,99,0.00,,,0.00,WeatherCatV2.01B39,2015-07-29 12:06:00,
2015-07-29 08:11:00,67.0,66.7,29.93,ESE,103,0.0,0.0,99,0.00,,,0.00,WeatherCatV2.01B39,2015-07-29 12:11:00,
2015-07-29 08:16:00,67.4,67.1,29.93,ESE,102,0.0,0.0,99,0.00,,,0.00,WeatherCatV2.01B39,2015-07-29 12:16:00,
2015-07-29 08:21:00,67.7,67.4,29.93,ESE,103,0.0,0.0,99,0.00,,,0.00,WeatherCatV2.01B39,2015-07-29 12:21:00,
2015-07-29 08:26:00,68.1,67.8,29.93,ESE,103,0.0,0.0,99,0.00,,,0.00,WeatherCatV2.01B39,2015-07-29 12:26:00,
2015-07-29 08:31:00,68.3,68.0,29.93,ESE,102,0.0,0.0,99,0.00,,,0.00,WeatherCatV2.01B39,2015-07-29 12:31:00,
2015-07-29 08:36:00,68.6,68.3,29.93,ESE,102,0.0,0.0,99,0.00,,,0.00,WeatherCatV2.01B39,2015-07-29 12:36:00,
2015-07-29 08:41:00,68.9,68.6,29.93,ESE,103,0.0,0.0,99,0.00,,,0.00,WeatherCatV2.01B39,2015-07-29 12:41:00,
2015-07-29 08:46:00,69.1,68.8,29.93,ESE,103,0.0,0.0,99,0.00,,,0.00,WeatherCatV2.01B39,2015-07-29 12:46:00,
2015-07-29 08:51:00,69.5,69.2,29.93,ESE,103,0.0,0.0,99,0.00,,,0.00,WeatherCatV2.01B39,2015-07-29 12:51:00,
2015-07-29 08:56:00,69.7,69.4,29.92,ESE,103,0.0,0.0,99,0.00,,,0.00,WeatherCatV2.01B39,2015-07-29 12:56:00,
2015-07-29 09:01:00,69.6,69.3,29.93,ESE,103,0.0,0.0,99,0.00,,,0.00,WeatherCatV2.01B39,2015-07-29 13:01:00,
2015-07-29 09:06:00,69.6,69.3,29.93,ESE,102,0.0,0.0,99,0.00,,,0.00,WeatherCatV2.01B39,2015-07-29 13:06:00,
2015-07-29 09:11:00,69.6,69.3,29.93,ESE,103,0.0,0.0,99,0.00,,,0.00,WeatherCatV2.01B39,2015-07-29 13:11:00,
2015-07-29 09:16:00,69.8,69.5,29.93,ESE,102,0.0,0.0,99,0.00,,,0.00,WeatherCatV2.01B39,2015-07-29 13:16:00,
2015-07-29 09:21:00,70.0,69.7,29.93,ESE,103,0.0,0.0,99,0.00,,,0.00,WeatherCatV2.01B39,2015-07-29 13:21:00,
2015-07-29 09:26:00,70.4,70.1,29.93,ESE,103,0.0,0.0,99,0.00,,,0.00,WeatherCatV2.01B39,2015-07-29 13:26:00,
2015-07-29 09:31:00,70.5,70.2,29.92,ESE,102,0.0,0.0,99,0.00,,,0.00,WeatherCatV2.01B39,2015-07-29 13:31:00,
2015-07-29 09:36:00,70.6,70.3,29.92,ESE,103,0.0,0.0,99,0.00,,,0.00,WeatherCatV2.01B39,2015-07-29 13:36:00,
2015-07-29 09:41:00,70.9,70.6,29.92,ESE,103,0.0,0.0,99,0.00,,,0.00,WeatherCatV2.01B39,2015-07-29 13:41:00,
2015-07-29 09:46:00,71.2,70.9,29.92,ESE,103,0.0,0.0,99,0.00,,,0.00,WeatherCatV2.01B39,2015-07-29 13:46:00,
2015-07-29 09:51:00,71.4,71.1,29.92,ESE,102,0.0,0.0,99,0.00,,,0.00,WeatherCatV2.01B39,2015-07-29 13:51:00,
2015-07-29 10:01:00,72.1,71.8,29.92,ESE,103,0.0,0.0,99,0.00,,,0.00,WeatherCatV2.01B39,2015-07-29 14:01:00,
2015-07-29 10:06:00,72.4,72.1,29.91,ESE,102,0.0,0.0,99,0.00,,,0.00,WeatherCatV2.01B39,2015-07-29 14:06:00,
2015-07-29 10:11:00,72.9,72.6,29.91,ESE,103,0.0,0.0,99,0.00,,,0.00,WeatherCatV2.01B39,2015-07-29 14:11:00,
2015-07-29 10:16:00,73.2,72.9,29.91,ESE,103,0.0,1.0,99,0.00,,,0.00,WeatherCatV2.01B39,2015-07-29 14:16:00,
2015-07-29 10:21:00,73.3,72.7,29.91,East,85,1.0,2.0,98,0.00,,,0.00,WeatherCatV2.01B39,2015-07-29 14:21:00,
2015-07-29 10:26:00,73.9,71.7,29.91,SE,136,0.0,0.0,93,0.00,,,0.00,WeatherCatV2.01B39,2015-07-29 14:26:00,
2015-07-29 10:31:00,74.5,72.3,29.90,SE,136,0.0,1.0,93,0.00,,,0.00,WeatherCatV2.01B39,2015-07-29 14:31:00,
2015-07-29 10:36:00,74.9,72.1,29.91,SE,136,0.0,0.0,91,0.00,,,0.00,WeatherCatV2.01B39,2015-07-29 14:36:00,
2015-07-29 10:41:00,75.5,72.7,29.90,SE,136,0.0,0.0,91,0.00,,,0.00,WeatherCatV2.01B39,2015-07-29 14:41:00,
2015-07-29 10:46:00,75.6,73.1,29.90,SE,136,0.0,0.0,92,0.00,,,0.00,WeatherCatV2.01B39,2015-07-29 14:46:00,
2015-07-29 10:51:00,75.5,71.3,29.90,SE,136,0.0,0.0,87,0.00,,,0.00,WeatherCatV2.01B39,2015-07-29 14:51:00,
2015-07-29 10:56:00,75.7,71.5,29.90,SE,136,0.0,0.0,87,0.00,,,0.00,WeatherCatV2.01B39,2015-07-29 14:56:00,
2015-07-29 11:01:00,76.6,69.2,29.91,SE,140,0.0,1.0,78,0.00,,,0.00,WeatherCatV2.01B39,2015-07-29 15:01:00,
2015-07-29 11:06:00,77.1,71.5,29.90,SE,139,0.0,0.0,83,0.00,,,0.00,WeatherCatV2.01B39,2015-07-29 15:06:00,
2015-07-29 11:11:00,77.4,68.4,29.90,SE,139,0.0,0.0,74,0.00,,,0.00,WeatherCatV2.01B39,2015-07-29 15:11:00,
2015-07-29 11:21:00,77.9,72.3,29.90,SE,137,0.0,1.0,83,0.00,,,0.00,WeatherCatV2.01B39,2015-07-29 15:21:00,
2015-07-29 11:26:00,77.9,71.9,29.90,SE,137,0.0,1.0,82,0.00,,,0.00,WeatherCatV2.01B39,2015-07-29 15:26:00,
2015-07-29 11:31:00,78.6,68.8,29.90,East,93,0.0,0.0,72,0.00,,,0.00,WeatherCatV2.01B39,2015-07-29 15:31:00,
2015-07-29 11:36:00,79.5,70.9,29.90,East,93,0.0,0.0,75,0.00,,,0.00,WeatherCatV2.01B39,2015-07-29 15:36:00,
2015-07-29 11:41:00,79.5,70.9,29.89,East,92,0.0,0.0,75,0.00,,,0.00,WeatherCatV2.01B39,2015-07-29 15:41:00,
2015-07-29 11:46:00,79.5,70.1,29.89,East,93,0.0,1.0,73,0.00,,,0.00,WeatherCatV2.01B39,2015-07-29 15:46:00,
2015-07-29 11:51:00,79.5,72.0,29.89,East,92,0.0,0.0,78,0.00,,,0.00,WeatherCatV2.01B39,2015-07-29 15:51:00,
2015-07-29 11:56:00,79.6,71.7,29.89,East,92,0.0,0.0,77,0.00,,,0.00,WeatherCatV2.01B39,2015-07-29 15:56:00,
2015-07-29 12:01:00,79.8,71.2,29.90,East,93,1.0,1.0,75,0.00,,,0.00,WeatherCatV2.01B39,2015-07-29 16:01:00,
2015-07-29 12:07:00,79.8,72.3,29.89,East,92,1.0,1.0,78,0.00,,,0.00,WeatherCatV2.01B39,2015-07-29 16:07:00,
2015-07-29 12:12:00,80.3,67.4,29.89,ENE,76,0.0,5.0,65,0.00,,,0.00,WeatherCatV2.01B39,2015-07-29 16:12:00,
2015-07-29 12:22:00,82.8,72.4,29.88,SE,136,0.0,1.0,71,0.00,,,0.00,WeatherCatV2.01B39,2015-07-29 16:22:00,
2015-07-29 12:27:00,83.1,66.3,29.89,SE,136,0.0,0.0,57,0.00,,,0.00,WeatherCatV2.01B39,2015-07-29 16:27:00,
2015-07-29 12:32:00,82.7,70.6,29.89,SE,136,0.0,1.0,67,0.00,,,0.00,WeatherCatV2.01B39,2015-07-29 16:32:00,
2015-07-29 12:37:00,81.9,70.7,29.89,SE,128,0.0,0.0,69,0.00,,,0.00,WeatherCatV2.01B39,2015-07-29 16:37:00,
2015-07-29 12:42:00,81.3,73.4,29.89,SE,128,0.0,0.0,77,0.00,,,0.00,WeatherCatV2.01B39,2015-07-29 16:42:00,
2015-07-29 12:47:00,80.7,72.0,29.89,SE,128,0.0,2.0,75,0.00,,,0.00,WeatherCatV2.01B39,2015-07-29 16:47:00,
2015-07-29 12:52:00,80.2,72.3,29.89,SE,128,0.0,0.0,77,0.00,,,0.00,WeatherCatV2.01B39,2015-07-29 16:52:00,
2015-07-29 12:57:00,80.3,68.3,29.88,SE,128,0.0,2.0,67,0.00,,,0.00,WeatherCatV2.01B39,2015-07-29 16:57:00,
2015-07-29 13:02:00,80.8,73.3,29.88,SE,124,0.0,1.0,78,0.00,,,0.00,WeatherCatV2.01B39,2015-07-29 17:02:00,
2015-07-29 13:07:00,81.1,73.2,29.88,ESE,123,0.0,1.0,77,0.00,,,0.00,WeatherCatV2.01B39,2015-07-29 17:07:00,
2015-07-29 13:17:00,81.2,70.0,29.88,ESE,122,0.0,1.0,69,0.00,,,0.00,WeatherCatV2.01B39,2015-07-29 17:17:00,
2015-07-29 13:22:00,80.6,71.1,29.89,ESE,123,0.0,0.0,73,0.00,,,0.00,WeatherCatV2.01B39,2015-07-29 17:22:00,
2015-07-29 13:27:00,80.0,70.6,29.89,ESE,123,0.0,0.0,73,0.00,,,0.00,WeatherCatV2.01B39,2015-07-29 17:27:00,
2015-07-29 13:32:00,80.3,74.7,29.88,ESE,123,0.0,0.0,83,0.00,,,0.00,WeatherCatV2.01B39,2015-07-29 17:32:00,
2015-07-29 13:37:00,81.2,68.7,29.88,SE,138,0.0,3.0,66,0.00,,,0.00,WeatherCatV2.01B39,2015-07-29 17:37:00,
2015-07-29 13:43:00,82.2,72.7,29.88,WNW,303,0.0,0.0,73,0.00,,,0.00,WeatherCatV2.01B39,2015-07-29 17:43:00,
2015-07-29 13:48:00,83.2,67.8,29.88,West,279,0.0,5.0,60,0.00,,,0.00,WeatherCatV2.01B39,2015-07-29 17:48:00,
2015-07-29 13:59:00,82.7,69.2,29.87,ESE,105,0.0,3.0,64,0.00,,,0.00,WeatherCatV2.01B39,2015-07-29 17:59:00,
2015-07-29 14:04:00,81.8,72.3,29.87,ESE,105,0.0,0.0,73,0.00,,,0.00,WeatherCatV2.01B39,2015-07-29 18:04:00,
2015-07-29 14:09:00,80.5,71.8,29.88,ESE,105,0.0,0.0,75,0.00,,,0.00,WeatherCatV2.01B39,2015-07-29 18:09:00,
2015-07-29 14:14:00,79.6,71.7,29.87,East,84,0.0,3.0,77,0.00,,,0.00,WeatherCatV2.01B39,2015-07-29 18:14:00,
2015-07-29 14:19:00,79.7,72.2,29.87,East,81,1.0,1.0,78,0.00,,,0.00,WeatherCatV2.01B39,2015-07-29 18:19:00,
2015-07-29 14:29:00,81.2,72.5,29.86,NNE,31,0.0,0.0,75,0.00,,,0.00,WeatherCatV2.01B39,2015-07-29 18:29:00,
2015-07-29 14:34:00,81.5,72.4,29.86,NE,44,0.0,3.0,74,0.00,,,0.00,WeatherCatV2.01B39,2015-07-29 18:34:00,
2015-07-29 14:39:00,82.5,73.8,29.86,ENE,59,0.0,0.0,75,0.00,,,0.00,WeatherCatV2.01B39,2015-07-29 18:39:00,
2015-07-29 14:44:00,83.4,69.4,29.86,ENE,63,1.0,2.0,63,0.00,,,0.00,WeatherCatV2.01B39,2015-07-29 18:44:00,
2015-07-29 14:49:00,84.4,69.9,29.85,ENE,63,0.0,0.0,62,0.00,,,0.00,WeatherCatV2.01B39,2015-07-29 18:49:00,
2015-07-29 14:54:00,85.3,74.4,29.85,ENE,63,0.0,0.0,70,0.00,,,0.00,WeatherCatV2.01B39,2015-07-29 18:54:00,
2015-07-29 14:59:00,85.3,73.9,29.85,ENE,63,0.0,0.0,69,0.00,,,0.00,WeatherCatV2.01B39,2015-07-29 18:59:00,
2015-07-29 15:04:00,85.5,70.5,29.84,ENE,78,1.0,2.0,61,0.00,,,0.00,WeatherCatV2.01B39,2015-07-29 19:04:00,
2015-07-29 15:09:00,85.5,71.9,29.84,ENE,78,1.0,1.0,64,0.00,,,0.00,WeatherCatV2.01B39,2015-07-29 19:09:00,
2015-07-29 15:14:00,84.7,74.2,29.84,East,83,0.0,3.0,71,0.00,,,0.00,WeatherCatV2.01B39,2015-07-29 19:14:00,
2015-07-29 15:19:00,84.4,72.7,29.84,ENE,74,0.0,0.0,68,0.00,,,0.00,WeatherCatV2.01B39,2015-07-29 19:19:00,
2015-07-29 15:24:00,84.5,72.8,29.84,East,82,0.0,1.0,68,0.00,,,0.00,WeatherCatV2.01B39,2015-07-29 19:24:00,
2015-07-29 15:29:00,83.7,71.6,29.84,East,81,0.0,1.0,67,0.00,,,0.00,WeatherCatV2.01B39,2015-07-29 19:29:00,
2015-07-29 15:39:00,82.7,72.3,29.84,WSW,240,0.0,1.0,71,0.00,,,0.00,WeatherCatV2.01B39,2015-07-29 19:39:00,
2015-07-29 15:44:00,82.9,72.1,29.84,WSW,240,0.0,2.0,70,0.00,,,0.00,WeatherCatV2.01B39,2015-07-29 19:44:00,
2015-07-29 15:49:00,82.3,71.1,29.84,WSW,240,0.0,1.0,69,0.00,,,0.00,WeatherCatV2.01B39,2015-07-29 19:49:00,
2015-07-29 15:54:00,81.4,71.5,29.84,WSW,240,0.0,1.0,72,0.00,,,0.00,WeatherCatV2.01B39,2015-07-29 19:54:00,
2015-07-29 15:59:00,80.2,71.9,29.85,WSW,240,0.0,0.0,76,0.00,,,0.00,WeatherCatV2.01B39,2015-07-29 19:59:00,
2015-07-29 16:04:00,79.3,71.4,29.85,WSW,240,0.0,2.0,77,0.00,,,0.00,WeatherCatV2.01B39,2015-07-29 20:04:00,
2015-07-29 16:09:00,78.4,72.1,29.85,WSW,240,0.0,1.0,81,0.00,,,0.00,WeatherCatV2.01B39,2015-07-29 20:09:00,
2015-07-29 16:14:00,77.6,71.3,29.85,WSW,240,2.0,2.0,81,0.00,,,0.00,WeatherCatV2.01B39,2015-07-29 20:14:00,
2015-07-29 16:19:00,77.0,71.4,29.85,WSW,240,0.0,1.0,83,0.00,,,0.00,WeatherCatV2.01B39,2015-07-29 20:19:00,
2015-07-29 16:24:00,76.4,71.5,29.85,WSW,240,0.0,0.0,85,0.00,,,0.00,WeatherCatV2.01B39,2015-07-29 20:24:00,
2015-07-29 16:29:00,76.2,71.0,29.86,WSW,240,0.0,0.0,84,0.00,,,0.00,WeatherCatV2.01B39,2015-07-29 20:29:00,
2015-07-29 16:34:00,76.2,71.0,29.85,WSW,240,0.0,0.0,84,0.00,,,0.00,WeatherCatV2.01B39,2015-07-29 20:34:00,
2015-07-29 16:39:00,76.4,70.5,29.85,WSW,240,0.0,0.0,82,0.00,,,0.00,WeatherCatV2.01B39,2015-07-29 20:39:00,
2015-07-29 16:44:00,76.4,70.1,29.85,WSW,240,0.0,0.0,81,0.00,,,0.00,WeatherCatV2.01B39,2015-07-29 20:44:00,
2015-07-29 16:49:00,76.4,70.8,29.85,WSW,240,0.0,0.0,83,0.00,,,0.00,WeatherCatV2.01B39,2015-07-29 20:49:00,
2015-07-29 16:54:00,76.3,70.4,29.86,NE,37,1.0,7.0,82,0.00,,,0.00,WeatherCatV2.01B39,2015-07-29 20:54:00,
2015-07-29 17:04:00,76.7,71.1,29.86,NW,306,0.0,3.0,83,0.00,,,0.00,WeatherCatV2.01B39,2015-07-29 21:04:00,
2015-07-29 17:09:00,76.4,71.5,29.85,NW,306,0.0,0.0,85,0.00,,,0.00,WeatherCatV2.01B39,2015-07-29 21:09:00,
2015-07-29 17:14:00,76.0,71.8,29.85,NW,306,0.0,0.0,87,0.00,,,0.00,WeatherCatV2.01B39,2015-07-29 21:14:00,
2015-07-29 17:24:00,74.9,72.1,29.86,NW,306,0.0,0.0,91,0.00,,,0.00,WeatherCatV2.01B39,2015-07-29 21:24:00,
2015-07-29 17:29:00,74.9,72.4,29.86,NW,306,0.0,0.0,92,0.00,,,0.00,WeatherCatV2.01B39,2015-07-29 21:29:00,
2015-07-29 17:34:00,74.6,72.1,29.86,NW,306,0.0,0.0,92,0.00,,,0.00,WeatherCatV2.01B39,2015-07-29 21:34:00,
2015-07-29 17:39:00,74.4,71.9,29.85,NW,306,0.0,0.0,92,0.00,,,0.00,WeatherCatV2.01B39,2015-07-29 21:39:00,
2015-07-29 17:49:00,74.4,72.9,29.85,NW,306,0.0,0.0,95,0.00,,,0.00,WeatherCatV2.01B39,2015-07-29 21:49:00,
2015-07-29 17:54:00,74.8,72.9,29.85,NW,306,0.0,0.0,94,0.00,,,0.00,WeatherCatV2.01B39,2015-07-29 21:54:00,
2015-07-29 17:59:00,74.9,73.1,29.85,NW,306,0.0,0.0,94,0.00,,,0.00,WeatherCatV2.01B39,2015-07-29 21:59:00,
2015-07-29 18:04:00,75.0,72.8,29.85,NW,306,0.0,0.0,93,0.00,,,0.00,WeatherCatV2.01B39,2015-07-29 22:04:00,
2015-07-29 18:09:00,75.1,73.2,29.84,NW,306,0.0,0.0,94,0.00,,,0.00,WeatherCatV2.01B39,2015-07-29 22:09:00,
2015-07-29 18:14:00,75.5,73.6,29.84,NW,306,0.0,0.0,94,0.00,,,0.00,WeatherCatV2.01B39,2015-07-29 22:14:00,
2015-07-29 18:19:00,75.6,73.4,29.84,NW,306,0.0,0.0,93,0.00,,,0.00,WeatherCatV2.01B39,2015-07-29 22:19:00,
2015-07-29 18:24:00,75.7,73.5,29.84,NW,306,0.0,0.0,93,0.00,,,0.00,WeatherCatV2.01B39,2015-07-29 22:24:00,
2015-07-29 18:34:00,75.8,73.3,29.84,NW,306,0.0,0.0,92,0.00,,,0.00,WeatherCatV2.01B39,2015-07-29 22:34:00,
2015-07-29 18:44:00,75.7,73.5,29.84,NW,306,0.0,0.0,93,0.00,,,0.00,WeatherCatV2.01B39,2015-07-29 22:44:00,
2015-07-29 18:49:00,75.7,73.5,29.84,NW,306,0.0,0.0,93,0.00,,,0.00,WeatherCatV2.01B39,2015-07-29 22:49:00,
2015-07-29 18:54:00,75.7,73.2,29.84,NW,306,0.0,0.0,92,0.00,,,0.00,WeatherCatV2.01B39,2015-07-29 22:54:00,
2015-07-29 18:59:00,75.5,73.0,29.84,NW,306,0.0,0.0,92,0.00,,,0.00,WeatherCatV2.01B39,2015-07-29 22:59:00,
2015-07-29 19:04:00,75.3,72.8,29.84,NW,306,0.0,0.0,92,0.00,,,0.00,WeatherCatV2.01B39,2015-07-29 23:04:00,
2015-07-29 19:09:00,75.0,72.5,29.84,NW,306,0.0,0.0,92,0.00,,,0.00,WeatherCatV2.01B39,2015-07-29 23:09:00,
2015-07-29 19:14:00,74.7,72.2,29.84,NW,306,0.0,0.0,92,0.00,,,0.00,WeatherCatV2.01B39,2015-07-29 23:14:00,
2015-07-29 19:19:00,74.4,71.9,29.84,NW,306,0.0,0.0,92,0.00,,,0.00,WeatherCatV2.01B39,2015-07-29 23:19:00,
2015-07-29 19:24:00,74.0,71.5,29.84,NW,306,0.0,0.0,92,0.00,,,0.00,WeatherCatV2.01B39,2015-07-29 23:24:00,
2015-07-29 19:29:00,73.7,71.2,29.84,NW,306,0.0,0.0,92,0.00,,,0.00,WeatherCatV2.01B39,2015-07-29 23:29:00,
2015-07-29 19:39:00,73.2,71.1,29.85,NW,306,0.0,0.0,93,0.00,,,0.00,WeatherCatV2.01B39,2015-07-29 23:39:00,
2015-07-29 19:44:00,73.0,70.8,29.85,NW,306,0.0,0.0,93,0.00,,,0.00,WeatherCatV2.01B39,2015-07-29 23:44:00,
2015-07-29 19:49:00,72.7,70.6,29.85,NW,306,0.0,0.0,93,0.00,,,0.00,WeatherCatV2.01B39,2015-07-29 23:49:00,
2015-07-29 19:54:00,72.4,70.2,29.85,NW,306,0.0,0.0,93,0.00,,,0.00,WeatherCatV2.01B39,2015-07-29 23:54:00,
2015-07-29 19:59:00,72.2,70.1,29.85,NW,306,0.0,0.0,93,0.00,,,0.00,WeatherCatV2.01B39,2015-07-29 23:59:00,
2015-07-29 20:04:00,71.9,69.8,29.85,NW,306,0.0,0.0,93,0.00,,,0.00,WeatherCatV2.01B39,2015-07-30 00:04:00,
2015-07-29 20:09:00,71.7,69.6,29.85,NW,306,0.0,0.0,93,0.00,,,0.00,WeatherCatV2.01B39,2015-07-30 00:09:00,
2015-07-29 20:14:00,71.4,69.3,29.85,NW,306,0.0,0.0,93,0.00,,,0.00,WeatherCatV2.01B39,2015-07-30 00:14:00,
2015-07-29 20:19:00,71.2,69.1,29.85,NW,306,0.0,0.0,93,0.00,,,0.00,WeatherCatV2.01B39,2015-07-30 00:19:00,
2015-07-29 20:24:00,71.0,68.9,29.85,NW,306,0.0,0.0,93,0.00,,,0.00,WeatherCatV2.01B39,2015-07-30 00:24:00,
2015-07-29 20:34:00,70.4,68.3,29.85,NW,306,0.0,0.0,93,0.00,,,0.00,WeatherCatV2.01B39,2015-07-30 00:34:00,
2015-07-29 20:39:00,70.1,68.3,29.85,NW,306,0.0,0.0,94,0.00,,,0.00,WeatherCatV2.01B39,2015-07-30 00:39:00,
2015-07-29 20:44:00,69.9,68.1,29.86,NW,306,0.0,0.0,94,0.00,,,0.00,WeatherCatV2.01B39,2015-07-30 00:44:00,
2015-07-29 20:49:00,69.8,68.0,29.86,NW,306,0.0,0.0,94,0.00,,,0.00,WeatherCatV2.01B39,2015-07-30 00:49:00,
2015-07-29 20:54:00,69.6,67.8,29.86,NW,306,0.0,0.0,94,0.00,,,0.00,WeatherCatV2.01B39,2015-07-30 00:54:00,
2015-07-29 20:59:00,69.4,67.6,29.86,NW,306,0.0,0.0,94,0.00,,,0.00,WeatherCatV2.01B39,2015-07-30 00:59:00,
2015-07-29 21:04:00,69.3,67.5,29.86,NW,306,0.0,0.0,94,0.00,,,0.00,WeatherCatV2.01B39,2015-07-30 01:04:00,
2015-07-29 21:09:00,69.0,67.2,29.86,NW,306,0.0,0.0,94,0.00,,,0.00,WeatherCatV2.01B39,2015-07-30 01:09:00,
2015-07-29 21:14:00,68.9,67.4,29.87,NW,306,0.0,0.0,95,0.00,,,0.00,WeatherCatV2.01B39,2015-07-30 01:14:00,
2015-07-29 21:19:00,68.7,67.2,29.86,NW,306,0.0,0.0,95,0.00,,,0.00,WeatherCatV2.01B39,2015-07-30 01:19:00,
2015-07-29 21:24:00,68.5,67.0,29.86,NW,306,0.0,0.0,95,0.00,,,0.00,WeatherCatV2.01B39,2015-07-30 01:24:00,
2015-07-29 21:29:00,68.3,66.8,29.87,NW,306,0.0,0.0,95,0.00,,,0.00,WeatherCatV2.01B39,2015-07-30 01:29:00,
2015-07-29 21:34:00,68.2,66.7,29.87,NW,306,0.0,0.0,95,0.00,,,0.00,WeatherCatV2.01B39,2015-07-30 01:34:00,
2015-07-29 21:39:00,68.0,66.5,29.87,NW,306,0.0,0.0,95,0.00,,,0.00,WeatherCatV2.01B39,2015-07-30 01:39:00,
2015-07-29 21:44:00,67.9,66.4,29.87,NW,306,0.0,0.0,95,0.00,,,0.00,WeatherCatV2.01B39,2015-07-30 01:44:00,
2015-07-29 21:49:00,67.7,66.2,29.87,NW,306,0.0,0.0,95,0.00,,,0.00,WeatherCatV2.01B39,2015-07-30 01:49:00,
2015-07-29 21:59:00,67.5,66.0,29.87,NW,306,0.0,0.0,95,0.00,,,0.00,WeatherCatV2.01B39,2015-07-30 01:59:00,
2015-07-29 22:04:00,67.4,65.9,29.86,NW,306,0.0,0.0,95,0.00,,,0.00,WeatherCatV2.01B39,2015-07-30 02:04:00,
2015-07-29 22:09:00,67.4,66.2,29.86,NW,306,0.0,0.0,96,0.00,,,0.00,WeatherCatV2.01B39,2015-07-30 02:09:00,
2015-07-29 22:14:00,67.3,66.1,29.86,NW,306,0.0,0.0,96,0.00,,,0.00,WeatherCatV2.01B39,2015-07-30 02:14:00,
2015-07-29 22:19:00,67.2,66.0,29.87,NW,306,0.0,0.0,96,0.00,,,0.00,WeatherCatV2.01B39,2015-07-30 02:19:00,
2015-07-29 22:24:00,67.0,65.8,29.87,NW,306,0.0,0.0,96,0.00,,,0.00,WeatherCatV2.01B39,2015-07-30 02:24:00,
2015-07-29 22:29:00,66.9,65.7,29.87,NW,306,0.0,0.0,96,0.00,,,0.00,WeatherCatV2.01B39,2015-07-30 02:29:00,
2015-07-29 22:34:00,66.7,65.5,29.86,NW,306,0.0,0.0,96,0.00,,,0.00,WeatherCatV2.01B39,2015-07-30 02:34:00,
2015-07-29 22:39:00,66.7,65.5,29.87,NW,306,0.0,0.0,96,0.00,,,0.00,WeatherCatV2.01B39,2015-07-30 02:39:00,
2015-07-29 22:49:00,66.6,65.4,29.86,NW,306,0.0,0.0,96,0.00,,,0.00,WeatherCatV2.01B39,2015-07-30 02:49:00,
2015-07-29 22:54:00,66.6,65.4,29.86,NW,306,0.0,0.0,96,0.00,,,0.00,WeatherCatV2.01B39,2015-07-30 02:54:00,
2015-07-29 22:59:00,66.5,65.3,29.86,NW,306,0.0,0.0,96,0.00,,,0.00,WeatherCatV2.01B39,2015-07-30 02:59:00,
2015-07-29 23:09:00,66.3,65.1,29.86,NW,306,0.0,0.0,96,0.00,,,0.00,WeatherCatV2.01B39,2015-07-30 03:09:00,
2015-07-29 23:14:00,66.1,64.9,29.86,NW,306,0.0,0.0,96,0.00,,,0.00,WeatherCatV2.01B39,2015-07-30 03:14:00,
2015-07-29 23:19:00,66.1,64.9,29.86,NW,306,0.0,0.0,96,0.00,,,0.00,WeatherCatV2.01B39,2015-07-30 03:19:00,
2015-07-29 23:24:00,66.1,64.9,29.86,NW,306,0.0,0.0,96,0.00,,,0.00,WeatherCatV2.01B39,2015-07-30 03:24:00,
2015-07-29 23:29:00,66.0,64.8,29.85,NW,306,0.0,0.0,96,0.00,,,0.00,WeatherCatV2.01B39,2015-07-30 03:29:00,
2015-07-29 23:34:00,66.1,65.2,29.85,NW,306,0.0,0.0,97,0.00,,,0.00,WeatherCatV2.01B39,2015-07-30 03:34:00,
2015-07-29 23:39:00,66.1,65.2,29.85,NW,306,0.0,0.0,97,0.00,,,0.00,WeatherCatV2.01B39,2015-07-30 03:39:00,
2015-07-29 23:44:00,66.1,65.2,29.85,NW,306,0.0,0.0,97,0.00,,,0.00,WeatherCatV2.01B39,2015-07-30 03:44:00,